Time;durP1;ratioP1;P1;durP2;ratioP2;P2;SDS_P1;SDS_P2;PMS_P1;PMS_P2;Temp;Humidity;BMP_temperature;BMP_pressure;BME280_temperature;BME280_humidity;BME280_pressure;Samples;Min_cycle;Max_cycle;Signal;HPM_P1;HPM_P2
2023/01/16 14:25:28;;;;;;;7.03;2.90;;;21.70;54.50;;;;;;6186615;23;20429;-68
2023/01/16 14:27:55;;;;;;;8.30;3.30;;;21.70;54.50;;;;;;6186092;23;20920;-66
2023/01/16 14:30:25;;;;;;;4.73;2.30;;;21.70;54.50;;;;;;6186041;23;20920;-67
2023/01/16 14:32:58;;;;;;;7.63;2.57;;;21.70;54.50;;;;;;6186050;23;20755;-65
2023/01/16 14:35:31;;;;;;;7.93;2.90;;;21.80;54.50;;;;;;6186468;23;20363;-64
2023/01/16 14:37:58;;;;;;;3.97;2.30;;;21.80;54.50;;;;;;6186104;23;20363;-67
2023/01/16 14:55:34;;;;;;;6.40;2.40;;;21.90;54.60;;;;;;6186022;23;20386;-65
2023/01/16 14:58:02;;;;;;;5.43;2.97;;;21.90;54.70;;;;;;6186198;23;20423;-69
2023/01/16 15:00:30;;;;;;;5.53;2.40;;;21.90;54.70;;;;;;6185874;23;20363;-67
2023/01/16 15:03:07;;;;;;;5.30;2.47;;;22.00;54.80;;;;;;6185759;23;20525;-69
2023/01/16 15:05:55;;;;;;;4.93;2.27;;;22.00;54.70;;;;;;6186090;23;20391;-64
2023/01/16 15:08:23;;;;;;;5.67;2.90;;;22.00;54.70;;;;;;6186437;23;20694;-69
2023/01/16 15:10:51;;;;;;;6.50;2.00;;;22.00;54.70;;;;;;6185850;23;20379;-68
2023/01/16 15:21:57;;;;;;;3.27;2.07;;;22.10;54.70;;;;;;6185815;23;20846;-68
2023/01/16 15:22:20;;;;;;;6.43;2.73;;;22.10;54.70;;;;;;6143826;23;20414;-69
2023/01/16 15:24:56;;;;;;;6.20;2.40;;;22.10;54.70;;;;;;6185639;23;20359;-65
2023/01/16 15:27:31;;;;;;;5.13;2.20;;;22.10;54.70;;;;;;6185621;23;20366;-64
2023/01/16 15:30:03;;;;;;;4.33;2.27;;;22.10;54.70;;;;;;6159334;23;20374;-65
2023/01/16 15:32:28;;;;;;;4.03;2.00;;;22.20;54.70;;;;;;6185414;23;20415;-65
2023/01/16 15:35:15;;;;;;;4.93;2.23;;;22.20;54.70;;;;;;6185535;23;20395;-61
2023/01/16 15:37:56;;;;;;;3.33;2.10;;;22.20;54.70;;;;;;6159287;23;20148;-65
2023/01/16 15:40:24;;;;;;;6.43;2.43;;;22.20;54.70;;;;;;6185918;23;20661;-64
2023/01/16 15:48:54;;;;;;;5.13;3.30;;;22.20;54.70;;;;;;6185954;23;20725;-64
2023/01/16 15:51:21;;;;;;;3.43;1.93;;;22.20;54.70;;;;;;6179363;23;20765;-64
2023/01/16 15:53:53;;;;;;;4.57;2.30;;;22.20;54.70;;;;;;6185556;23;20386;-63
2023/01/16 15:56:21;;;;;;;4.70;2.17;;;22.20;54.70;;;;;;6185743;23;20462;-64
2023/01/16 15:58:48;;;;;;;4.23;2.00;;;22.20;54.70;;;;;;6185431;23;20399;-65
2023/01/16 16:01:14;;;;;;;3.30;1.93;;;22.30;54.80;;;;;;6185361;23;20398;-55
2023/01/16 16:03:46;;;;;;;4.10;2.30;;;22.30;54.80;;;;;;6185442;23;20371;-72
2023/01/16 16:06:14;;;;;;;2.97;1.70;;;22.30;54.80;;;;;;6185458;23;20386;-69
2023/01/16 16:08:46;;;;;;;4.27;2.30;;;22.30;54.80;;;;;;6185362;23;20386;-71
2023/01/16 16:20:36;;;;;;;2.83;1.80;;;22.30;54.80;;;;;;6185457;23;20486;-65
2023/01/16 16:23:20;;;;;;;3.00;2.10;;;22.30;54.80;;;;;;6185226;23;20383;-67
2023/01/16 16:26:01;;;;;;;3.63;2.10;;;22.30;54.80;;;;;;6158850;23;20942;-70
2023/01/16 16:28:35;;;;;;;3.60;1.90;;;22.30;54.80;;;;;;6185662;23;20356;-66
2023/01/16 16:31:24;;;;;;;3.83;1.80;;;22.30;54.80;;;;;;6159079;23;20398;-72
2023/01/16 16:34:04;;;;;;;6.60;2.27;;;22.30;54.80;;;;;;6187242;23;20347;-65
2023/01/16 16:36:39;;;;;;;3.43;1.93;;;22.30;54.80;;;;;;6187548;23;20819;-65
2023/01/16 16:39:25;;;;;;;3.47;1.90;;;22.40;54.80;;;;;;6187614;23;20343;-61
2023/01/16 16:44:46;;;;;;;3.23;1.83;;;22.40;54.80;;;;;;6187220;23;20405;-63
2023/01/16 16:47:26;;;;;;;2.93;1.77;;;22.40;54.80;;;;;;6187227;23;20767;-63
2023/01/16 16:49:52;;;;;;;3.20;2.10;;;22.40;54.80;;;;;;6187141;23;20355;-63
2023/01/16 16:52:22;;;;;;;1.97;1.33;;;22.40;54.80;;;;;;6186985;23;20407;-64
2023/01/16 16:54:58;;;;;;;2.77;1.70;;;22.40;54.80;;;;;;6187445;23;20367;-65
2023/01/16 16:57:26;;;;;;;3.50;1.93;;;22.40;54.80;;;;;;6187376;23;20351;-67
2023/01/16 16:59:54;;;;;;;4.40;1.70;;;22.40;54.80;;;;;;6160605;23;20378;-65
2023/01/16 17:02:22;;;;;;;2.73;1.50;;;22.40;54.80;;;;;;6186963;23;20395;-64
2023/01/16 17:04:48;;;;;;;3.40;1.90;;;22.40;54.80;;;;;;6187088;23;20383;-62
2023/01/16 17:07:13;;;;;;;3.70;2.00;;;22.40;54.80;;;;;;6186971;23;20375;-64
2023/01/16 17:09:39;;;;;;;4.03;1.83;;;22.40;54.70;;;;;;6186930;23;20454;-64
2023/01/16 17:12:21;;;;;;;4.77;1.63;;;22.40;54.70;;;;;;6186825;23;20294;-62
2023/01/16 17:14:47;;;;;;;3.63;1.90;;;22.40;54.80;;;;;;6187025;23;20511;-63
2023/01/16 17:17:18;;;;;;;1.97;1.50;;;22.40;54.70;;;;;;6160552;23;20386;-62
2023/01/16 17:19:45;;;;;;;3.80;1.87;;;22.40;54.70;;;;;;6187168;23;20159;-62
2023/01/16 17:22:11;;;;;;;4.27;2.10;;;22.40;54.80;;;;;;6187159;23;20770;-73
2023/01/16 17:24:37;;;;;;;3.00;1.70;;;22.40;54.70;;;;;;6187122;23;20403;-67
2023/01/16 17:27:07;;;;;;;2.40;1.73;;;22.40;54.70;;;;;;6186815;23;20375;-66
2023/01/16 17:29:33;;;;;;;1.97;1.17;;;22.50;54.80;;;;;;6186682;23;20429;-62
2023/01/16 17:32:04;;;;;;;3.37;1.77;;;22.40;54.80;;;;;;6186521;23;20446;-68
2023/01/16 17:34:32;;;;;;;2.23;1.43;;;22.40;54.70;;;;;;6187147;23;20375;-67
2023/01/16 17:36:58;;;;;;;1.90;1.40;;;22.40;54.70;;;;;;6186727;23;20905;-66
2023/01/16 17:39:25;;;;;;;2.57;1.87;;;22.40;54.70;;;;;;6187050;23;20454;-65
2023/01/16 17:47:05;;;;;;;2.60;1.43;;;22.40;54.80;;;;;;6165102;23;20434;-69
2023/01/16 17:49:31;;;;;;;2.90;1.57;;;22.40;54.80;;;;;;6186718;23;20382;-67
2023/01/16 17:51:57;;;;;;;2.20;1.33;;;22.40;54.80;;;;;;6186470;23;20790;-69
2023/01/16 17:57:07;;;;;;;2.60;1.50;;;22.40;54.80;;;;;;6186580;23;20178;-67
2023/01/16 17:59:33;;;;;;;2.40;1.50;;;22.50;54.90;;;;;;6186442;23;20449;-68
2023/01/16 18:01:59;;;;;;;4.00;1.60;;;22.40;54.90;;;;;;6160174;23;20182;-69
2023/01/16 18:04:26;;;;;;;2.17;1.40;;;22.50;55.00;;;;;;6160105;23;20159;-68
2023/01/16 18:06:52;;;;;;;3.00;1.33;;;22.50;55.00;;;;;;6186678;23;20156;-67
2023/01/16 18:09:18;;;;;;;6.13;1.50;;;22.50;55.00;;;;;;6186373;23;20378;-68
2023/01/16 18:17:23;;;;;;;2.17;1.30;;;22.50;55.00;;;;;;6188287;23;20452;-65
2023/01/16 18:20:01;;;;;;;2.13;1.33;;;22.50;55.00;;;;;;6187754;23;20810;-64
2023/01/16 18:22:31;;;;;;;2.07;1.40;;;22.50;55.00;;;;;;6186374;23;20410;-68
2023/01/16 18:24:59;;;;;;;1.73;1.10;;;22.50;55.00;;;;;;6186266;23;20854;-68
2023/01/16 18:27:25;;;;;;;2.40;1.50;;;22.50;55.00;;;;;;6186177;23;20462;-67
2023/01/16 18:29:51;;;;;;;2.07;1.20;;;22.50;55.00;;;;;;6186370;23;20399;-66
2023/01/16 18:32:25;;;;;;;3.50;1.70;;;22.50;55.00;;;;;;6185886;23;20929;-66
2023/01/16 18:35:02;;;;;;;2.17;1.23;;;22.50;55.00;;;;;;6159893;23;20151;-69
2023/01/16 18:37:38;;;;;;;3.07;1.37;;;22.50;55.00;;;;;;6186111;23;20371;-63
2023/01/16 19:02:22;;;;;;;1.63;0.90;;;22.60;55.00;;;;;;6186259;23;20398;-64
2023/01/16 19:04:47;;;;;;;2.10;1.30;;;22.50;55.00;;;;;;6160629;23;20407;-64
2023/01/16 19:07:20;;;;;;;1.67;1.23;;;22.60;55.00;;;;;;6185786;23;20378;-64
2023/01/16 19:09:48;;;;;;;1.53;1.10;;;22.60;55.00;;;;;;6185769;23;20148;-66
2023/01/16 19:12:16;;;;;;;2.53;1.20;;;22.60;55.00;;;;;;6185620;23;20426;-64
2023/01/16 19:14:43;;;;;;;2.60;1.33;;;22.60;55.00;;;;;;6185619;23;20458;-64
2023/01/16 19:17:08;;;;;;;2.43;1.60;;;22.60;55.00;;;;;;6185955;23;20379;-64
2023/01/16 19:19:34;;;;;;;2.60;1.57;;;22.60;55.00;;;;;;6185855;23;20913;-64
2023/01/16 19:22:00;;;;;;;1.83;1.20;;;22.60;55.00;;;;;;6185393;23;20266;-64
2023/01/16 19:24:31;;;;;;;1.60;1.20;;;22.60;55.00;;;;;;6186011;23;20222;-63
2023/01/16 19:26:57;;;;;;;3.30;1.37;;;22.60;55.00;;;;;;6159249;23;20402;-63
2023/01/16 19:29:24;;;;;;;2.60;1.27;;;22.60;55.00;;;;;;6185667;23;20410;-63
2023/01/16 19:31:51;;;;;;;1.53;1.00;;;22.60;55.00;;;;;;6185534;23;20414;-64
2023/01/16 19:34:17;;;;;;;2.17;1.23;;;22.60;55.00;;;;;;6185917;23;20413;-65
2023/01/16 19:36:44;;;;;;;2.30;1.10;;;22.60;55.00;;;;;;6185663;23;20683;-63
2023/01/16 19:39:13;;;;;;;1.97;1.17;;;22.60;55.00;;;;;;6185559;23;20371;-64
2023/01/16 19:47:10;;;;;;;2.17;1.47;;;22.60;55.00;;;;;;6185960;23;20420;-64
2023/01/16 19:49:37;;;;;;;3.17;1.50;;;22.60;55.00;;;;;;6185483;23;20691;-64
2023/01/16 19:52:03;;;;;;;1.70;1.33;;;22.60;55.00;;;;;;6185615;23;20937;-64
2023/01/16 19:54:29;;;;;;;2.80;1.30;;;22.60;55.00;;;;;;6159762;23;20409;-64
2023/01/16 19:56:55;;;;;;;2.80;1.43;;;22.60;55.00;;;;;;6185464;23;20367;-64
2023/01/16 19:59:21;;;;;;;1.23;0.93;;;22.60;55.00;;;;;;6185401;23;20162;-63
2023/01/16 20:02:00;;;;;;;1.50;1.13;;;22.60;55.00;;;;;;6185324;23;20898;-63
2023/01/16 20:04:33;;;;;;;1.90;1.03;;;22.60;55.00;;;;;;6185411;23;20135;-64
2023/01/16 20:06:59;;;;;;;1.40;0.90;;;22.60;55.00;;;;;;6185273;23;20434;-64
2023/01/16 20:09:24;;;;;;;1.53;1.30;;;22.60;55.00;;;;;;6185680;23;20477;-64
2023/01/16 20:14:35;;;;;;;1.93;1.27;;;22.60;55.00;;;;;;6185462;23;20535;-64
2023/01/16 20:17:01;;;;;;;2.33;1.40;;;22.60;55.00;;;;;;6185274;23;20377;-64
2023/01/16 20:19:30;;;;;;;2.00;1.13;;;22.60;55.00;;;;;;6185702;23;20897;-64
2023/01/16 20:21:56;;;;;;;1.40;1.07;;;22.60;55.00;;;;;;6184805;23;20426;-65
2023/01/16 20:24:22;;;;;;;2.17;1.30;;;22.60;55.00;;;;;;6185558;23;20392;-64
2023/01/16 20:26:51;;;;;;;2.57;1.00;;;22.50;54.90;;;;;;6185451;23;20148;-64
2023/01/16 20:29:18;;;;;;;1.50;1.07;;;22.50;54.90;;;;;;6185536;23;20374;-64
2023/01/16 20:31:44;;;;;;;2.63;1.17;;;22.50;54.90;;;;;;6185077;23;20423;-64
2023/01/16 20:34:10;;;;;;;1.73;1.13;;;22.50;54.90;;;;;;6159333;23;20469;-65
2023/01/16 20:36:36;;;;;;;1.20;1.00;;;22.50;54.90;;;;;;6185940;23;20402;-65
2023/01/16 20:39:03;;;;;;;1.53;1.00;;;22.50;54.90;;;;;;6158814;23;20156;-64
2023/01/16 20:47:05;;;;;;;1.57;1.20;;;22.50;54.90;;;;;;6185640;23;20360;-65
2023/01/16 20:49:30;;;;;;;1.13;0.90;;;22.50;54.90;;;;;;6185291;23;20462;-64
2023/01/16 20:51:57;;;;;;;1.70;1.10;;;22.40;54.90;;;;;;6185237;23;20446;-64
2023/01/16 20:54:24;;;;;;;1.63;1.00;;;22.40;54.90;;;;;;6185187;23;20148;-64
2023/01/16 20:56:54;;;;;;;1.30;1.00;;;22.50;55.00;;;;;;6185516;23;20383;-64
2023/01/16 20:59:23;;;;;;;2.07;1.20;;;22.50;55.00;;;;;;6185455;23;20381;-64
2023/01/16 21:01:49;;;;;;;1.50;0.80;;;22.40;54.90;;;;;;6185077;23;20395;-63
2023/01/16 21:04:17;;;;;;;1.40;1.00;;;22.40;54.90;;;;;;6185171;23;20387;-64
2023/01/16 21:06:45;;;;;;;1.33;0.90;;;22.40;54.90;;;;;;6185416;23;20398;-66
2023/01/16 21:09:11;;;;;;;1.50;1.10;;;22.40;55.40;;;;;;6185431;23;20371;-63
2023/01/16 21:14:22;;;;;;;2.17;1.17;;;22.40;54.90;;;;;;6185151;23;20359;-64
2023/01/16 21:22:25;;;;;;;1.47;1.00;;;22.40;54.90;;;;;;6186696;23;20762;-63
2023/01/16 21:24:51;;;;;;;1.83;1.20;;;22.40;54.90;;;;;;6186919;23;20379;-63
2023/01/16 21:27:18;;;;;;;1.70;1.57;;;22.40;54.90;;;;;;6187121;23;20442;-64
2023/01/16 21:29:44;;;;;;;1.40;1.00;;;22.40;54.90;;;;;;6186739;23;20792;-63
2023/01/16 21:32:10;;;;;;;1.30;0.87;;;22.40;54.90;;;;;;6186661;23;20446;-65
2023/01/16 21:34:37;;;;;;;2.07;1.10;;;22.40;54.90;;;;;;6186659;23;20399;-64
2023/01/16 21:37:03;;;;;;;1.67;1.00;;;22.40;54.90;;;;;;6186763;23;20487;-64
2023/01/16 21:39:30;;;;;;;2.07;1.20;;;22.40;54.90;;;;;;6186645;23;20367;-64
2023/01/16 21:47:27;;;;;;;1.73;1.00;;;22.40;55.00;;;;;;6186978;23;20391;-63
2023/01/16 21:49:52;;;;;;;1.20;1.00;;;22.40;54.90;;;;;;6186819;23;20458;-64
2023/01/16 21:52:18;;;;;;;1.67;1.00;;;22.40;55.00;;;;;;6186382;23;20505;-64
2023/01/16 21:54:43;;;;;;;1.40;1.10;;;22.40;55.00;;;;;;6186538;23;20665;-64
2023/01/16 21:57:09;;;;;;;1.90;1.33;;;22.40;54.90;;;;;;6186518;23;20207;-64
2023/01/16 21:59:35;;;;;;;1.40;0.80;;;22.40;55.00;;;;;;6186429;23;20151;-63
2023/01/16 22:02:01;;;;;;;1.90;0.87;;;22.40;54.90;;;;;;6135304;23;20685;-64
2023/01/16 22:04:26;;;;;;;1.63;0.90;;;22.40;54.90;;;;;;6186418;23;20155;-64
2023/01/16 22:06:52;;;;;;;1.63;1.00;;;22.40;54.90;;;;;;6186340;23;20155;-64
2023/01/16 22:09:18;;;;;;;1.50;0.90;;;22.40;55.00;;;;;;6186348;23;20147;-65
2023/01/16 22:20:15;;;;;;;2.00;0.90;;;22.30;55.00;;;;;;6186407;23;20374;-64
2023/01/16 22:22:48;;;;;;;1.60;1.30;;;22.30;55.00;;;;;;6186105;23;20502;-64
2023/01/16 22:25:14;;;;;;;2.63;1.00;;;22.30;55.00;;;;;;6186297;23;20390;-64
2023/01/16 22:27:39;;;;;;;1.23;1.03;;;22.30;55.00;;;;;;6186187;23;20391;-64
2023/01/16 22:30:06;;;;;;;2.37;1.77;;;22.30;55.00;;;;;;6185717;23;20227;-65
2023/01/16 22:32:31;;;;;;;1.70;1.13;;;22.30;55.00;;;;;;6186048;23;20184;-62
2023/01/16 22:34:57;;;;;;;1.40;1.00;;;22.30;55.00;;;;;;6186467;23;20382;-64
2023/01/16 22:37:22;;;;;;;1.30;0.67;;;22.30;55.00;;;;;;6186253;23;20630;-64
2023/01/16 22:39:48;;;;;;;1.30;0.90;;;22.30;55.00;;;;;;6186057;23;20155;-64
2023/01/16 22:42:15;;;;;;;2.10;1.43;;;22.30;55.00;;;;;;6186075;23;20177;-64
2023/01/16 22:47:27;;;;;;;1.20;0.80;;;22.30;55.60;;;;;;6186076;23;20886;-64
2023/01/16 22:49:53;;;;;;;1.27;0.83;;;22.30;55.00;;;;;;6185948;23;20390;-64
2023/01/16 22:52:19;;;;;;;1.20;0.80;;;22.30;55.00;;;;;;6185813;23;20422;-64
2023/01/16 22:54:45;;;;;;;1.80;1.20;;;22.30;55.00;;;;;;6186327;23;20155;-63
2023/01/16 22:57:11;;;;;;;1.47;1.13;;;22.30;55.00;;;;;;6185921;23;20363;-64
2023/01/16 22:59:37;;;;;;;1.20;0.90;;;22.30;55.00;;;;;;6185772;23;20223;-64
2023/01/16 23:02:03;;;;;;;1.60;1.03;;;22.30;55.00;;;;;;6186041;23;20418;-64
2023/01/16 23:04:29;;;;;;;1.20;0.90;;;22.30;55.00;;;;;;6185809;23;20152;-64
2023/01/16 23:06:55;;;;;;;1.43;0.90;;;22.30;55.00;;;;;;6185855;23;20398;-64
2023/01/16 23:09:21;;;;;;;1.43;1.10;;;22.30;55.00;;;;;;6185767;23;20718;-64
2023/01/16 23:11:49;;;;;;;1.70;0.90;;;22.30;55.00;;;;;;6185577;23;20183;-64
2023/01/16 23:14:17;;;;;;;2.20;0.90;;;22.30;55.00;;;;;;6185748;23;20148;-63
2023/01/16 23:16:46;;;;;;;1.60;1.00;;;22.30;55.00;;;;;;6186067;23;20760;-64
2023/01/16 23:19:15;;;;;;;1.37;1.03;;;22.30;55.00;;;;;;6186075;23;20371;-64
2023/01/16 23:21:40;;;;;;;1.17;0.87;;;22.30;55.00;;;;;;6185432;23;20433;-64
2023/01/16 23:24:13;;;;;;;1.50;1.10;;;22.30;55.00;;;;;;6185666;23;20371;-64
2023/01/16 23:26:40;;;;;;;2.73;0.90;;;22.30;55.00;;;;;;6185723;23;20143;-64
2023/01/16 23:29:08;;;;;;;1.20;0.87;;;22.30;55.00;;;;;;6185587;23;20371;-64
2023/01/16 23:31:35;;;;;;;1.40;0.83;;;22.30;55.00;;;;;;6185357;23;20418;-64
2023/01/16 23:34:01;;;;;;;1.50;0.97;;;22.30;55.00;;;;;;6186499;23;20378;-64
2023/01/16 23:36:29;;;;;;;1.20;0.80;;;22.30;55.00;;;;;;6185554;23;20703;-65
2023/01/16 23:38:55;;;;;;;1.43;0.93;;;22.30;55.00;;;;;;6185829;23;20378;-64
2023/01/16 23:44:28;;;;;;;1.13;0.77;;;22.30;55.00;;;;;;6185893;23;20402;-65
2023/01/16 23:46:54;;;;;;;1.80;0.90;;;22.20;54.90;;;;;;6185579;23;20351;-64
2023/01/16 23:49:19;;;;;;;1.30;0.90;;;22.20;55.50;;;;;;6185748;23;20363;-64
2023/01/16 23:51:45;;;;;;;1.00;0.70;;;22.20;54.90;;;;;;6185306;23;20411;-64
2023/01/16 23:54:11;;;;;;;1.30;0.80;;;22.20;54.90;;;;;;6185436;23;20223;-64
2023/01/16 23:56:36;;;;;;;1.60;0.73;;;22.20;54.90;;;;;;6185612;23;20147;-64
2023/01/16 23:59:02;;;;;;;1.60;0.90;;;22.20;55.00;;;;;;6185718;23;20520;-64
